This is the latest recevied weather packets stored in our database for station/object CE3MLB. If no packets are shown the sender has not sent any weather packets the latest 10 day(s).
| Time | Temp. | Humidity | Pressure | Rain* | Wind** | Luminosity | Snow |
|---|---|---|---|---|---|---|---|
| 1777769819 | 9.44° C | 90% | 1004.1 hPa | 0 mm | - | 0 W/m² | - |
| 1777766217 | 11.67° C | 79% | 1003.9 hPa | 0 mm | - | 0 W/m² | - |
| 1777762616 | 14.44° C | 74% | 1003.6 hPa | 0 mm | - | 0 W/m² | - |
| 1777759014 | 20° C | 59% | 1002.3 hPa | 0 mm | - | 3 W/m² | - |
| 1777755410 | 23.89° C | 47% | 1001.7 hPa | 0 mm | - | 25 W/m² | - |
| 1777751808 | 24.44° C | 47% | 1001.2 hPa | 0 mm | - | 38 W/m² | - |
| 1777748203 | 25.56° C | 46% | 1001.2 hPa | 0 mm | - | 331 W/m² | - |
| 1777744603 | 25.56° C | 48% | 1001.7 hPa | 0 mm | - | 416 W/m² | - |
| 1777741000 | 22.22° C | 58% | 1002.2 hPa | 0 mm | - | 446 W/m² | - |
| 1777737395 | 21.11° C | 63% | 1003.1 hPa | 0 mm | - | 430 W/m² | - |
| 1777733793 | 16.67° C | 75% | 1003.8 hPa | 0 mm | - | 268 W/m² | - |
| 1777730191 | 15.56° C | 81% | 1004.6 hPa | 0 mm | - | 332 W/m² | - |
| 1777726589 | 8.89° C | 99% | 1004.6 hPa | 0 mm | - | 77 W/m² | - |
| 1777722990 | 3.33° C | 99% | 1004.3 hPa | 0 mm | - | 17 W/m² | - |
| 1777719386 | 3.33° C | 99% | 1004.3 hPa | 0 mm | - | 0 W/m² | - |
| 1777715785 | 3.89° C | 99% | 1004.8 hPa | 0 mm | - | 0 W/m² | - |
| 1777712180 | 3.89° C | 99% | 1004.7 hPa | 0 mm | - | 0 W/m² | - |
| 1777708580 | 4.44° C | 99% | 1004.9 hPa | 0 mm | - | 0 W/m² | - |
| 1777704978 | 5.56° C | 99% | 1005.6 hPa | 0 mm | - | 0 W/m² | - |
| 1777701374 | 6.11° C | 99% | 1006.1 hPa | 0 mm | - | 0 W/m² | - |
| 1777697771 | 6.67° C | 99% | 1006.9 hPa | 0 mm | - | 0 W/m² | - |
| 1777694168 | 6.67° C | 99% | 1007.5 hPa | 0 mm | - | 0 W/m² | - |
| 1777690566 | 7.78° C | 99% | 1007.8 hPa | 0 mm | - | 0 W/m² | - |
| 1777686964 | 8.89° C | 98% | 1007.8 hPa | 0 mm | - | 0 W/m² | - |
| 1777683361 | 10° C | 97% | 1007.9 hPa | 0 mm | - | 0 W/m² | - |
* Rain latest hour (hover to see other rain measurements)
** Current wind speed in m/s (hover to see current wind gust speed)